KSNL/SNL METAR and TAF weather

Enter ICAO airport designator
Station Type Date Time Source
KSNL METAR 2021/05/15 23:15 UTC NOAA

KSNL 152315Z AUTO 17010KT 10SM SCT055 25/15 A2999 RMK AO2 T02530149


Station Type Date Time Source
KSNL Decoded METAR 2021/05/15 23:15 UTC NOAA

Shawnee, Shawnee Municipal Airport, OK, United States (KSNL) 35-21-26N 096-56-34W
May 15, 2021 - 07:15 PM EDT / 2021.05.15 2315 UTC
Wind: from the S (170 degrees) at 12 MPH (10 KT):0
Visibility: 10 mile(s):0
Sky conditions: partly cloudy
Temperature: 77.5 F (25.3 C)
Dew Point: 58.8 F (14.9 C)
Relative Humidity: 52%
Pressure (altimeter): 29.99 in. Hg (1015 hPa)
ob: KSNL 152315Z AUTO 17010KT 10SM SCT055 25/15 A2999 RMK AO2 T02530149
cycle: 23

Station Type Date Time Source
KSNL TAF UTC NOAA

Error!

Example: see airport list